Terminal Aerodrome Forecast
Issued by NWS Charleston, WV

Current Version | Previous Version | Graphics & Text | Print | Product List | Glossary On
Versions: 1 2 3 4 5 6 7 8 9 10 11 12 13 14 15 16 17 18 19 20 21 22 23 24 25 26
000
FTUS41 KRLX 012300
TAFPKB
TAF
KPKB 012340Z 0200/0224 10008KT P6SM BKN035
     FM020100 00000KT P6SM BKN250
     FM020300 00000KT 6SM BR BKN250
     FM020500 00000KT 4SM BR BKN250
     FM020600 00000KT 2SM BR BKN130
     FM021200 00000KT 3SM BR BKN120
     FM021300 00000KT P6SM BKN120
     FM021500 00000KT P6SM BKN250
     FM022100 32004KT P6SM VCTS BKN045CB=

USA.gov is the U.S. government's official web portal to all federal, state and local government web resources and services.